createdAt,value
2019-05-23T00:02:23.322Z,18.80
2019-05-23T00:05:11.271Z,19.83
2019-05-23T00:07:42.581Z,18.13
2019-05-23T00:10:15.421Z,19.03
2019-05-23T00:13:01.593Z,19.33
2019-05-23T00:15:33.287Z,20.70
2019-05-23T00:18:04.344Z,19.07
2019-05-23T00:20:34.122Z,20.03
2019-05-23T00:23:05.359Z,18.20
2019-05-23T00:25:35.394Z,18.13
2019-05-23T00:28:06.310Z,20.50
2019-05-23T00:30:48.422Z,20.40
2019-05-23T00:33:21.188Z,20.57
2019-05-23T00:35:51.145Z,19.33
2019-05-23T00:38:21.374Z,20.17
2019-05-23T00:40:52.686Z,25.13
2019-05-23T00:43:22.000Z,18.90
2019-05-23T00:45:51.238Z,17.17
2019-05-23T00:48:21.022Z,20.47
2019-05-23T00:50:52.684Z,20.17
2019-05-23T00:53:23.319Z,16.50
2019-05-23T00:55:53.570Z,19.67
2019-05-23T00:58:23.235Z,18.30
2019-05-23T01:00:52.493Z,22.30
2019-05-23T01:03:22.076Z,19.57
2019-05-23T01:05:51.517Z,19.77
2019-05-23T01:08:21.446Z,20.30
2019-05-23T01:10:51.203Z,19.50
2019-05-23T01:13:20.677Z,19.73
2019-05-23T01:15:50.599Z,19.77
2019-05-23T01:18:20.101Z,17.53
2019-05-23T01:21:06.583Z,19.50
2019-05-23T01:23:38.349Z,20.03
2019-05-23T01:26:08.442Z,18.07
2019-05-23T01:28:37.450Z,18.50
2019-05-23T01:31:09.418Z,19.23
2019-05-23T01:33:39.652Z,19.03
2019-05-23T01:36:10.414Z,17.80
2019-05-23T01:38:40.098Z,19.07
2019-05-23T01:41:10.109Z,19.10
2019-05-23T01:43:39.165Z,20.60
2019-05-23T01:46:08.323Z,19.63
2019-05-23T01:48:38.089Z,21.67
2019-05-23T01:51:08.196Z,19.40
2019-05-23T01:53:38.546Z,20.07
2019-05-23T01:56:08.339Z,20.30
2019-05-23T01:58:38.264Z,20.47
2019-05-23T02:01:07.358Z,18.80
2019-05-23T02:03:36.476Z,20.37
2019-05-23T02:06:06.436Z,17.80
2019-05-23T02:08:35.794Z,21.80
2019-05-23T02:11:05.446Z,19.07
2019-05-23T02:13:34.982Z,23.07
2019-05-23T02:16:05.106Z,19.10
2019-05-23T02:18:35.173Z,20.63
2019-05-23T02:21:05.624Z,20.13
2019-05-23T02:23:35.338Z,19.13
2019-05-23T02:26:04.573Z,20.20
2019-05-23T02:28:35.074Z,20.33
2019-05-23T02:31:04.027Z,21.00
2019-05-23T02:33:33.836Z,24.67
2019-05-23T02:36:03.310Z,20.90
2019-05-23T02:38:49.903Z,20.40
2019-05-23T02:41:47.389Z,18.63
2019-05-23T02:44:21.921Z,21.00
2019-05-23T02:47:02.941Z,22.87
2019-05-23T02:49:34.350Z,19.43
2019-05-23T02:52:22.447Z,20.43
2019-05-23T02:54:52.563Z,23.27
2019-05-23T02:57:23.225Z,22.40
2019-05-23T02:59:54.343Z,22.53
2019-05-23T03:02:45.750Z,20.17
2019-05-23T03:05:17.326Z,22.47
2019-05-23T03:07:46.471Z,23.90
2019-05-23T03:10:18.714Z,22.57
2019-05-23T03:12:49.442Z,22.97
2019-05-23T03:15:19.175Z,23.67
2019-05-23T03:17:49.905Z,25.30
2019-05-23T03:20:20.338Z,23.07
2019-05-23T03:22:58.475Z,24.27
2019-05-23T03:25:52.718Z,26.07
2019-05-23T03:28:23.739Z,24.57
2019-05-23T03:31:21.824Z,23.50
2019-05-23T03:33:25.861Z,24.70
2019-05-23T03:35:56.761Z,24.80
2019-05-23T03:38:27.077Z,25.93
2019-05-23T03:40:56.053Z,25.03
2019-05-23T03:43:25.588Z,23.17
2019-05-23T03:45:57.955Z,22.30
2019-05-23T03:48:27.739Z,22.93
2019-05-23T03:50:57.684Z,23.10
2019-05-23T03:53:28.535Z,21.60
2019-05-23T03:55:59.664Z,22.10
2019-05-23T03:58:29.629Z,24.27
2019-05-23T04:01:00.547Z,25.13
2019-05-23T04:03:30.124Z,23.47
2019-05-23T04:05:59.662Z,25.70
2019-05-23T04:08:29.890Z,22.87
2019-05-23T04:10:59.166Z,23.30
2019-05-23T04:13:29.328Z,24.10
2019-05-23T04:15:58.626Z,24.77
2019-05-23T04:18:28.565Z,22.00
2019-05-23T04:20:57.859Z,23.60
2019-05-23T04:23:27.130Z,23.07
2019-05-23T04:25:57.484Z,25.73
2019-05-23T04:28:26.917Z,23.23
2019-05-23T04:30:56.236Z,24.97
2019-05-23T04:33:25.657Z,21.60
2019-05-23T04:35:54.924Z,21.43
2019-05-23T04:38:24.205Z,23.40
2019-05-23T04:40:53.704Z,21.60
2019-05-23T04:43:23.047Z,22.00
2019-05-23T04:45:52.370Z,21.30
2019-05-23T04:48:22.012Z,22.77
2019-05-23T04:50:51.488Z,24.57
2019-05-23T04:53:21.038Z,21.17
2019-05-23T04:55:50.282Z,23.60
2019-05-23T04:58:20.562Z,21.50
2019-05-23T05:00:49.994Z,20.70
2019-05-23T05:03:19.535Z,21.93
2019-05-23T05:05:48.919Z,21.13
2019-05-23T05:08:18.442Z,20.77
2019-05-23T05:10:48.284Z,18.77
2019-05-23T05:13:18.283Z,18.90
2019-05-23T05:15:47.702Z,18.37
2019-05-23T05:18:16.996Z,21.93
2019-05-23T05:20:46.607Z,20.20
2019-05-23T05:23:15.920Z,17.57
2019-05-23T05:25:45.329Z,16.90
2019-05-23T05:28:15.009Z,20.03
2019-05-23T05:30:44.631Z,19.60
2019-05-23T05:33:13.627Z,17.57
2019-05-23T05:35:42.859Z,19.57
2019-05-23T05:38:12.302Z,17.63
2019-05-23T05:40:41.499Z,18.30
2019-05-23T05:43:10.574Z,19.03
2019-05-23T05:45:43.279Z,18.30
2019-05-23T05:48:12.245Z,18.63
2019-05-23T05:50:41.757Z,18.63
2019-05-23T05:53:11.359Z,18.57
2019-05-23T05:55:40.811Z,21.03
2019-05-23T05:58:10.463Z,21.20
2019-05-23T06:00:51.700Z,19.53
2019-05-23T06:03:21.691Z,19.73
2019-05-23T06:06:04.027Z,20.07
2019-05-23T06:08:35.223Z,20.13
2019-05-23T06:11:04.699Z,21.77
2019-05-23T06:13:33.729Z,22.13
2019-05-23T06:16:03.548Z,19.57
2019-05-23T06:18:32.768Z,20.37
2019-05-23T06:21:02.489Z,20.57
2019-05-23T06:23:33.277Z,22.30
2019-05-23T06:26:02.301Z,21.27
2019-05-23T06:28:34.116Z,21.60
2019-05-23T06:31:03.891Z,24.30
2019-05-23T06:33:32.933Z,22.17
2019-05-23T06:36:02.630Z,18.27
2019-05-23T06:38:32.285Z,20.13
2019-05-23T06:41:02.674Z,18.37
2019-05-23T06:43:32.101Z,16.97
2019-05-23T06:46:01.733Z,17.30
2019-05-23T06:48:30.843Z,16.50
2019-05-23T06:51:00.030Z,17.40
2019-05-23T06:53:29.264Z,16.40
2019-05-23T06:56:01.221Z,15.70
2019-05-23T06:58:31.701Z,16.67
2019-05-23T07:01:00.855Z,15.43
2019-05-23T07:03:41.175Z,17.00
2019-05-23T07:06:02.676Z,15.13
2019-05-23T07:08:33.002Z,18.00
2019-05-23T07:11:02.775Z,15.53
2019-05-23T07:13:35.435Z,15.67
2019-05-23T07:16:05.173Z,14.00
2019-05-23T07:18:34.925Z,16.33
2019-05-23T07:21:04.742Z,17.03
2019-05-23T07:23:35.152Z,13.10
2019-05-23T07:26:04.800Z,14.10
2019-05-23T07:28:35.934Z,14.30
2019-05-23T07:31:06.235Z,12.50
2019-05-23T07:33:35.582Z,10.10
2019-05-23T07:36:05.443Z,10.10
2019-05-23T07:38:34.853Z,10.60
2019-05-23T07:41:04.409Z,12.80
2019-05-23T07:43:33.450Z,11.57
2019-05-23T07:46:02.664Z,11.27
2019-05-23T07:48:32.415Z,12.23
2019-05-23T07:51:02.005Z,8.53
2019-05-23T07:53:56.083Z,9.27
2019-05-23T07:56:26.320Z,8.50
2019-05-23T07:58:55.629Z,9.07
2019-05-23T08:01:26.594Z,8.83
2019-05-23T08:03:56.936Z,9.27
2019-05-23T08:06:26.523Z,10.27
2019-05-23T08:08:55.584Z,9.13
2019-05-23T08:11:24.717Z,8.87
2019-05-23T08:13:54.473Z,8.10
2019-05-23T08:16:24.014Z,10.00
2019-05-23T08:18:53.499Z,9.30
2019-05-23T08:21:23.217Z,7.90
2019-05-23T08:23:52.662Z,8.43
2019-05-23T08:26:22.648Z,9.07
2019-05-23T08:29:12.615Z,11.17
2019-05-23T08:31:34.365Z,10.40
2019-05-23T08:34:04.371Z,9.80
2019-05-23T08:36:35.550Z,11.00
2019-05-23T08:39:08.087Z,10.90
2019-05-23T08:41:40.063Z,9.40
2019-05-23T08:44:12.640Z,10.20
2019-05-23T08:46:43.000Z,9.40
2019-05-23T08:49:14.384Z,9.80
2019-05-23T08:51:44.009Z,9.27
2019-05-23T08:54:14.987Z,9.33
2019-05-23T08:56:46.779Z,9.90
2019-05-23T08:59:18.041Z,8.50
2019-05-23T09:01:48.842Z,8.60
2019-05-23T09:04:20.780Z,9.27
2019-05-23T09:06:51.113Z,9.00
2019-05-23T09:09:29.745Z,8.13
2019-05-23T09:11:52.752Z,8.03
2019-05-23T09:14:22.477Z,7.87
2019-05-23T09:16:52.228Z,7.97
2019-05-23T09:19:21.764Z,9.83
2019-05-23T09:21:57.521Z,9.40
2019-05-23T09:24:42.352Z,8.13
2019-05-23T09:27:12.955Z,8.43
2019-05-23T09:29:43.266Z,8.30
2019-05-23T09:32:14.269Z,7.70
2019-05-23T09:34:43.982Z,10.00
2019-05-23T09:37:15.560Z,9.40
2019-05-23T09:39:47.680Z,8.53
2019-05-23T09:42:17.412Z,8.97
2019-05-23T09:44:46.717Z,7.37
2019-05-23T09:47:17.202Z,8.10
2019-05-23T09:49:53.552Z,8.87
2019-05-23T09:52:21.506Z,7.27
2019-05-23T09:54:51.683Z,8.20
2019-05-23T09:57:22.288Z,7.97
2019-05-23T09:59:56.150Z,8.67
2019-05-23T10:02:25.278Z,7.43
2019-05-23T10:04:54.724Z,9.37
2019-05-23T10:07:24.785Z,7.33
2019-05-23T10:09:54.357Z,7.60
2019-05-23T10:12:24.082Z,7.90
2019-05-23T10:15:18.786Z,9.07
2019-05-23T10:17:48.947Z,7.03
2019-05-23T10:20:18.707Z,7.93
2019-05-23T10:22:50.936Z,7.00
2019-05-23T10:25:24.594Z,8.40
2019-05-23T10:27:55.875Z,8.03
2019-05-23T10:30:25.874Z,7.23
2019-05-23T10:32:56.435Z,8.57
2019-05-23T10:35:26.213Z,8.10
2019-05-23T10:37:56.074Z,8.80
2019-05-23T10:40:28.027Z,7.67
2019-05-23T10:42:57.642Z,8.20
2019-05-23T10:45:28.667Z,9.77
2019-05-23T10:47:58.939Z,8.10
2019-05-23T10:50:43.583Z,7.23
2019-05-23T10:53:02.164Z,6.17
2019-05-23T10:55:33.984Z,7.87
2019-05-23T10:58:10.290Z,6.60
2019-05-23T11:00:44.486Z,7.67
2019-05-23T11:03:14.331Z,6.83
2019-05-23T11:05:44.206Z,6.50
2019-05-23T11:08:15.399Z,6.70
2019-05-23T11:10:45.328Z,6.83
2019-05-23T11:13:15.143Z,6.23
2019-05-23T11:15:44.978Z,7.30
2019-05-23T11:18:14.546Z,6.47
2019-05-23T11:20:45.110Z,7.20
2019-05-23T11:23:19.780Z,6.67
2019-05-23T11:25:49.874Z,6.73
2019-05-23T11:28:21.105Z,6.53
2019-05-23T11:30:57.956Z,5.30
2019-05-23T11:33:28.236Z,6.90
2019-05-23T11:35:58.230Z,6.27
2019-05-23T11:38:27.863Z,6.67
2019-05-23T11:40:58.397Z,7.03
2019-05-23T11:43:29.545Z,5.50
2019-05-23T11:46:06.142Z,5.80
2019-05-23T11:48:36.008Z,6.20
2019-05-23T11:51:05.991Z,6.20
2019-05-23T11:53:36.470Z,6.37
2019-05-23T11:56:08.045Z,6.93
2019-05-23T11:58:52.699Z,7.30
2019-05-23T12:01:29.762Z,6.10
2019-05-23T12:04:04.604Z,6.87
2019-05-23T12:06:54.743Z,6.73
2019-05-23T12:09:16.956Z,8.33
2019-05-23T12:11:48.422Z,7.33
2019-05-23T12:14:20.077Z,5.43
2019-05-23T12:16:49.812Z,6.27
2019-05-23T12:19:20.243Z,6.80
2019-05-23T12:21:50.879Z,6.50
2019-05-23T12:24:20.282Z,6.93
2019-05-23T12:26:53.627Z,6.20
2019-05-23T12:29:24.248Z,7.70
2019-05-23T12:31:53.859Z,6.60
2019-05-23T12:34:23.155Z,5.67
2019-05-23T12:37:14.339Z,5.53
2019-05-23T12:39:25.806Z,4.93
2019-05-23T12:41:56.003Z,5.50
2019-05-23T12:44:27.684Z,5.53
2019-05-23T12:46:57.249Z,7.00
2019-05-23T12:49:46.216Z,5.97
2019-05-23T12:52:16.711Z,5.30
2019-05-23T12:54:48.318Z,6.67
2019-05-23T12:57:22.870Z,8.30
2019-05-23T12:59:55.556Z,6.80
2019-05-23T13:02:27.446Z,7.43
2019-05-23T13:04:56.984Z,6.00
2019-05-23T13:07:35.980Z,4.80
2019-05-23T13:09:59.234Z,6.37
2019-05-23T13:12:28.933Z,6.17
2019-05-23T13:15:00.619Z,5.67
2019-05-23T13:17:30.200Z,6.03
2019-05-23T13:19:59.791Z,5.87
2019-05-23T13:22:29.947Z,5.20
2019-05-23T13:24:59.371Z,6.53
2019-05-23T13:27:29.318Z,6.80
2019-05-23T13:29:59.014Z,5.30
2019-05-23T13:32:29.783Z,5.97
2019-05-23T13:34:59.727Z,5.60
2019-05-23T13:37:30.264Z,6.40
2019-05-23T13:39:59.812Z,5.97
2019-05-23T13:42:29.868Z,6.00
2019-05-23T13:45:00.269Z,6.20
2019-05-23T13:47:30.944Z,5.97
2019-05-23T13:50:00.538Z,5.53
2019-05-23T13:52:31.199Z,6.20
2019-05-23T13:55:00.694Z,5.50
2019-05-23T13:57:31.268Z,6.20
2019-05-23T14:00:00.549Z,5.67
2019-05-23T14:02:31.369Z,5.77
2019-05-23T14:05:02.695Z,6.95
2019-05-23T14:07:33.056Z,6.90
2019-05-23T14:10:02.195Z,7.73
2019-05-23T14:12:31.474Z,6.83
2019-05-23T14:15:03.409Z,6.90
2019-05-23T14:17:36.837Z,6.67
2019-05-23T14:20:06.012Z,7.33
2019-05-23T14:22:40.010Z,6.50
2019-05-23T14:25:10.144Z,8.07
2019-05-23T14:27:57.165Z,7.30
2019-05-23T14:30:37.106Z,7.47
2019-05-23T14:33:09.409Z,6.30
2019-05-23T14:35:39.467Z,6.13
2019-05-23T14:38:09.755Z,6.03
2019-05-23T14:40:39.002Z,6.40
2019-05-23T14:43:16.357Z,6.23
2019-05-23T14:46:03.403Z,6.27
2019-05-23T14:49:00.321Z,6.43
2019-05-23T14:51:39.105Z,6.57
2019-05-23T14:54:13.925Z,6.00
2019-05-23T14:56:43.197Z,6.07
2019-05-23T14:59:12.138Z,6.90
2019-05-23T15:01:41.775Z,6.10
2019-05-23T15:04:11.085Z,5.13
2019-05-23T15:06:40.160Z,7.00
2019-05-23T15:09:09.491Z,4.77
2019-05-23T15:11:38.916Z,6.20
2019-05-23T15:14:08.021Z,5.97
2019-05-23T15:16:36.987Z,5.90
2019-05-23T15:19:06.190Z,5.20
2019-05-23T15:21:35.102Z,5.50
2019-05-23T15:24:04.635Z,5.77
2019-05-23T15:26:33.783Z,5.43
2019-05-23T15:29:02.819Z,4.07
2019-05-23T15:31:31.968Z,5.20
2019-05-23T15:34:01.272Z,4.53
2019-05-23T15:36:30.300Z,5.20
2019-05-23T15:39:09.546Z,13.53
2019-05-23T15:41:30.624Z,5.60
2019-05-23T15:44:00.076Z,4.80
2019-05-23T15:46:29.934Z,6.20
2019-05-23T15:48:59.570Z,5.10
2019-05-23T15:51:34.411Z,4.67
2019-05-23T15:54:08.667Z,4.90
2019-05-23T15:56:55.282Z,5.33
2019-05-23T15:59:31.759Z,5.23
2019-05-23T16:02:08.869Z,5.10
2019-05-23T16:04:38.416Z,5.10
2019-05-23T16:07:07.621Z,5.20
2019-05-23T16:09:36.963Z,5.90
2019-05-23T16:12:07.336Z,4.67
2019-05-23T16:14:37.206Z,5.60
2019-05-23T16:17:07.635Z,6.80
2019-05-23T16:19:36.654Z,5.00
2019-05-23T16:22:05.762Z,6.10
2019-05-23T16:24:35.397Z,4.57
2019-05-23T16:27:06.235Z,5.37
2019-05-23T16:29:36.138Z,5.57
2019-05-23T16:32:05.204Z,5.30
2019-05-23T16:34:35.320Z,4.80
2019-05-23T16:37:04.269Z,4.40
2019-05-23T16:39:46.483Z,4.23
2019-05-23T16:42:07.342Z,4.70
2019-05-23T16:44:36.334Z,4.20
2019-05-23T16:47:05.615Z,4.70
2019-05-23T16:49:34.581Z,4.60
2019-05-23T16:52:03.939Z,4.00
2019-05-23T16:54:38.466Z,4.37
2019-05-23T16:57:25.594Z,4.87
2019-05-23T17:00:00.066Z,5.00
2019-05-23T17:02:54.907Z,5.43
2019-05-23T17:05:42.092Z,5.37
2019-05-23T17:08:48.147Z,5.80
2019-05-23T17:11:36.182Z,5.47
2019-05-23T17:14:12.807Z,4.70
2019-05-23T17:17:06.889Z,5.17
2019-05-23T17:19:59.574Z,5.40
2019-05-23T17:22:44.883Z,4.57
2019-05-23T17:25:34.523Z,4.70
2019-05-23T17:28:08.150Z,5.07
2019-05-23T17:31:02.130Z,4.50
2019-05-23T17:33:32.242Z,4.50
2019-05-23T17:36:01.825Z,5.30
2019-05-23T17:38:31.229Z,6.20
2019-05-23T17:41:00.510Z,4.70
2019-05-23T17:43:29.565Z,4.63
2019-05-23T17:45:58.517Z,4.83
2019-05-23T17:48:27.764Z,5.87
2019-05-23T17:50:56.685Z,6.03
2019-05-23T17:53:25.929Z,5.33
2019-05-23T17:55:55.518Z,6.03
2019-05-23T17:58:25.001Z,5.90
2019-05-23T18:00:54.273Z,6.00
2019-05-23T18:03:24.448Z,4.83
2019-05-23T18:05:53.785Z,5.63
2019-05-23T18:08:23.176Z,4.70
2019-05-23T18:10:52.649Z,5.60
2019-05-23T18:13:22.117Z,4.80
2019-05-23T18:15:51.682Z,4.43
2019-05-23T18:18:21.496Z,5.50
2019-05-23T18:20:51.627Z,37.77
2019-05-23T18:23:20.681Z,40.03
2019-05-23T18:25:49.978Z,20.57
2019-05-23T18:28:20.904Z,6.67
2019-05-23T18:30:53.562Z,8.30
2019-05-23T18:33:24.014Z,5.33
2019-05-23T18:35:54.497Z,5.40
2019-05-23T18:38:24.350Z,5.57
2019-05-23T18:41:02.280Z,4.83
2019-05-23T18:43:24.530Z,4.60
2019-05-23T18:45:56.370Z,4.90
2019-05-23T18:48:25.727Z,4.53
2019-05-23T18:50:56.505Z,4.83
2019-05-23T18:53:25.869Z,4.90
2019-05-23T18:55:55.781Z,8.40
2019-05-23T18:58:25.130Z,31.15
2019-05-23T19:01:16.518Z,7.60
2019-05-23T19:03:46.063Z,6.17
2019-05-23T19:06:16.254Z,5.47
2019-05-23T19:08:45.691Z,6.07
2019-05-23T19:11:20.731Z,6.73
2019-05-23T19:13:46.431Z,5.00
2019-05-23T19:16:15.879Z,5.70
2019-05-23T19:18:45.309Z,5.60
2019-05-23T19:21:14.805Z,4.97
2019-05-23T19:23:44.222Z,5.07
2019-05-23T19:26:13.932Z,5.80
2019-05-23T19:28:43.061Z,6.87
2019-05-23T19:31:12.203Z,6.70
2019-05-23T19:33:41.690Z,6.00
2019-05-23T19:36:11.843Z,6.10
2019-05-23T19:38:40.891Z,6.00
2019-05-23T19:41:10.629Z,6.37
2019-05-23T19:43:40.043Z,6.93
2019-05-23T19:46:09.603Z,6.63
2019-05-23T19:48:39.645Z,6.17
2019-05-23T19:51:10.046Z,6.47
2019-05-23T19:53:39.445Z,5.60
2019-05-23T19:56:08.436Z,6.90
2019-05-23T19:58:37.948Z,6.83
2019-05-23T20:01:07.868Z,7.00
2019-05-23T20:03:36.979Z,6.03
2019-05-23T20:06:06.465Z,21.47
2019-05-23T20:08:36.500Z,45.60
2019-05-23T20:11:05.839Z,39.33
2019-05-23T20:13:35.053Z,5.97
2019-05-23T20:16:04.244Z,6.60
2019-05-23T20:18:33.808Z,6.00
2019-05-23T20:21:03.616Z,8.03
2019-05-23T20:23:32.717Z,7.50
